Singersville, Pennsylvania
Current Conditions -  °F | °C
As of 4:56 AM on Saturday 20 Dec 2014 (Local Time) from KCXY Reporting Station
Overcast Overcast  
Wind Chill: 26°   Ceiling: 3100
Heat Index: 32°   Visibility: 10mi
Dew Point: 20°   Wind: 7mph
Humidity: 61%   Direction: 330°NNW
Pressure: 30.25"   Gusts: NA
Location:  40.4076°N, 76.8769°W
Report Text: KCXY 200956Z AUTO 33006KT 10SM OVC031 00/M07 A3025 RMK AO2 SLP249 T00001067
Loading
Personal Weather Stations






























Interactive Weather Map New forecast layout! Learn more

10-Day Weather Forecast

Advertisements
Track Severe Weather on mobile